sensor_id;sensor_type;location;lat;lon;timestamp;P1;durP1;ratioP1;P2;durP2;ratioP2
20144;SDS011;10233;50.814;6.590;2023-02-18T00:00:39;6.93;;;4.40;;
20144;SDS011;10233;50.814;6.590;2023-02-18T00:01:40;7.20;;;4.50;;
20144;SDS011;10233;50.814;6.590;2023-02-18T00:02:40;7.68;;;4.75;;
20144;SDS011;10233;50.814;6.590;2023-02-18T00:03:41;7.68;;;4.80;;
20144;SDS011;10233;50.814;6.590;2023-02-18T00:04:44;7.55;;;4.50;;
20144;SDS011;10233;50.814;6.590;2023-02-18T00:05:44;7.20;;;4.60;;
20144;SDS011;10233;50.814;6.590;2023-02-18T00:06:44;7.17;;;4.83;;
20144;SDS011;10233;50.814;6.590;2023-02-18T00:07:45;7.77;;;4.80;;
20144;SDS011;10233;50.814;6.590;2023-02-18T00:08:45;6.75;;;4.40;;
20144;SDS011;10233;50.814;6.590;2023-02-18T00:09:46;8.00;;;4.57;;
20144;SDS011;10233;50.814;6.590;2023-02-18T00:10:47;7.00;;;4.47;;
20144;SDS011;10233;50.814;6.590;2023-02-18T00:11:47;7.45;;;4.53;;
20144;SDS011;10233;50.814;6.590;2023-02-18T00:12:48;6.57;;;4.20;;
20144;SDS011;10233;50.814;6.590;2023-02-18T00:13:49;6.83;;;4.80;;
20144;SDS011;10233;50.814;6.590;2023-02-18T00:14:50;7.95;;;4.60;;
20144;SDS011;10233;50.814;6.590;2023-02-18T00:15:51;7.20;;;4.60;;
20144;SDS011;10233;50.814;6.590;2023-02-18T00:16:51;7.30;;;4.80;;
20144;SDS011;10233;50.814;6.590;2023-02-18T00:17:52;8.48;;;4.95;;
20144;SDS011;10233;50.814;6.590;2023-02-18T00:18:56;7.37;;;4.90;;
20144;SDS011;10233;50.814;6.590;2023-02-18T00:19:58;6.73;;;4.40;;
20144;SDS011;10233;50.814;6.590;2023-02-18T00:20:58;7.37;;;4.67;;
20144;SDS011;10233;50.814;6.590;2023-02-18T00:21:59;6.95;;;4.65;;
20144;SDS011;10233;50.814;6.590;2023-02-18T00:22:59;7.27;;;4.53;;
20144;SDS011;10233;50.814;6.590;2023-02-18T00:24:00;8.53;;;4.60;;
20144;SDS011;10233;50.814;6.590;2023-02-18T00:25:00;9.00;;;4.40;;
20144;SDS011;10233;50.814;6.590;2023-02-18T00:26:05;6.88;;;4.50;;
20144;SDS011;10233;50.814;6.590;2023-02-18T00:27:07;6.55;;;4.57;;
20144;SDS011;10233;50.814;6.590;2023-02-18T00:28:08;8.05;;;5.15;;
20144;SDS011;10233;50.814;6.590;2023-02-18T00:29:08;8.43;;;4.70;;
20144;SDS011;10233;50.814;6.590;2023-02-18T00:30:09;6.93;;;4.47;;
20144;SDS011;10233;50.814;6.590;2023-02-18T00:31:11;7.55;;;4.90;;
20144;SDS011;10233;50.814;6.590;2023-02-18T00:32:15;8.88;;;4.97;;
20144;SDS011;10233;50.814;6.590;2023-02-18T00:33:16;8.20;;;5.03;;
20144;SDS011;10233;50.814;6.590;2023-02-18T00:34:16;7.45;;;4.60;;
20144;SDS011;10233;50.814;6.590;2023-02-18T00:35:17;7.70;;;4.83;;
20144;SDS011;10233;50.814;6.590;2023-02-18T00:36:18;6.65;;;4.45;;
20144;SDS011;10233;50.814;6.590;2023-02-18T00:37:19;7.85;;;4.47;;
20144;SDS011;10233;50.814;6.590;2023-02-18T00:38:19;8.73;;;4.75;;
20144;SDS011;10233;50.814;6.590;2023-02-18T00:39:20;8.33;;;4.87;;
20144;SDS011;10233;50.814;6.590;2023-02-18T00:40:20;6.97;;;5.07;;
20144;SDS011;10233;50.814;6.590;2023-02-18T00:41:21;9.63;;;4.70;;
20144;SDS011;10233;50.814;6.590;2023-02-18T00:42:23;6.85;;;4.43;;
20144;SDS011;10233;50.814;6.590;2023-02-18T00:43:23;7.07;;;4.63;;
20144;SDS011;10233;50.814;6.590;2023-02-18T00:44:24;7.88;;;4.68;;
20144;SDS011;10233;50.814;6.590;2023-02-18T00:45:25;8.20;;;4.55;;
20144;SDS011;10233;50.814;6.590;2023-02-18T00:46:25;6.07;;;4.10;;
20144;SDS011;10233;50.814;6.590;2023-02-18T00:47:26;6.47;;;4.18;;
20144;SDS011;10233;50.814;6.590;2023-02-18T00:48:27;6.82;;;4.70;;
20144;SDS011;10233;50.814;6.590;2023-02-18T00:49:27;7.40;;;4.47;;
20144;SDS011;10233;50.814;6.590;2023-02-18T00:50:28;5.65;;;3.90;;
20144;SDS011;10233;50.814;6.590;2023-02-18T00:51:31;7.03;;;4.72;;
20144;SDS011;10233;50.814;6.590;2023-02-18T00:52:31;6.32;;;4.03;;
20144;SDS011;10233;50.814;6.590;2023-02-18T00:53:34;7.15;;;4.50;;
20144;SDS011;10233;50.814;6.590;2023-02-18T00:54:35;6.20;;;4.15;;
20144;SDS011;10233;50.814;6.590;2023-02-18T00:55:41;6.13;;;4.13;;
20144;SDS011;10233;50.814;6.590;2023-02-18T00:56:43;7.15;;;4.30;;
20144;SDS011;10233;50.814;6.590;2023-02-18T00:57:43;6.37;;;4.30;;
20144;SDS011;10233;50.814;6.590;2023-02-18T00:58:44;6.93;;;3.87;;
20144;SDS011;10233;50.814;6.590;2023-02-18T00:59:44;5.72;;;3.78;;
20144;SDS011;10233;50.814;6.590;2023-02-18T01:00:45;7.13;;;4.00;;
20144;SDS011;10233;50.814;6.590;2023-02-18T01:01:46;7.00;;;4.07;;
20144;SDS011;10233;50.814;6.590;2023-02-18T01:02:46;6.50;;;4.28;;
20144;SDS011;10233;50.814;6.590;2023-02-18T01:03:47;7.40;;;4.27;;
20144;SDS011;10233;50.814;6.590;2023-02-18T01:04:48;6.80;;;4.20;;
20144;SDS011;10233;50.814;6.590;2023-02-18T01:05:48;6.10;;;3.97;;
20144;SDS011;10233;50.814;6.590;2023-02-18T01:06:49;5.25;;;3.42;;
20144;SDS011;10233;50.814;6.590;2023-02-18T01:07:50;5.50;;;3.70;;
20144;SDS011;10233;50.814;6.590;2023-02-18T01:08:50;6.73;;;4.10;;
20144;SDS011;10233;50.814;6.590;2023-02-18T01:09:51;6.03;;;4.03;;
20144;SDS011;10233;50.814;6.590;2023-02-18T01:10:53;6.43;;;3.70;;
20144;SDS011;10233;50.814;6.590;2023-02-18T01:11:55;5.40;;;3.67;;
20144;SDS011;10233;50.814;6.590;2023-02-18T01:12:55;4.60;;;3.10;;
20144;SDS011;10233;50.814;6.590;2023-02-18T01:13:56;5.05;;;3.40;;
20144;SDS011;10233;50.814;6.590;2023-02-18T01:14:56;5.13;;;3.40;;
20144;SDS011;10233;50.814;6.590;2023-02-18T01:15:57;4.72;;;3.20;;
20144;SDS011;10233;50.814;6.590;2023-02-18T01:16:58;5.93;;;3.78;;
20144;SDS011;10233;50.814;6.590;2023-02-18T01:17:58;4.93;;;3.23;;
20144;SDS011;10233;50.814;6.590;2023-02-18T01:18:59;6.35;;;3.38;;
20144;SDS011;10233;50.814;6.590;2023-02-18T01:19:59;5.37;;;3.50;;
20144;SDS011;10233;50.814;6.590;2023-02-18T01:21:00;4.67;;;3.23;;
20144;SDS011;10233;50.814;6.590;2023-02-18T01:22:01;4.80;;;3.42;;
20144;SDS011;10233;50.814;6.590;2023-02-18T01:23:02;5.25;;;3.15;;
20144;SDS011;10233;50.814;6.590;2023-02-18T01:24:03;4.95;;;3.20;;
20144;SDS011;10233;50.814;6.590;2023-02-18T01:25:04;5.70;;;3.22;;
20144;SDS011;10233;50.814;6.590;2023-02-18T01:26:05;5.32;;;3.35;;
20144;SDS011;10233;50.814;6.590;2023-02-18T01:27:06;5.20;;;3.47;;
20144;SDS011;10233;50.814;6.590;2023-02-18T01:28:08;5.07;;;3.25;;
20144;SDS011;10233;50.814;6.590;2023-02-18T01:29:11;4.97;;;3.35;;
20144;SDS011;10233;50.814;6.590;2023-02-18T01:30:14;5.22;;;3.28;;
20144;SDS011;10233;50.814;6.590;2023-02-18T01:31:18;4.85;;;3.30;;
20144;SDS011;10233;50.814;6.590;2023-02-18T01:32:18;5.20;;;3.35;;
20144;SDS011;10233;50.814;6.590;2023-02-18T01:33:19;4.80;;;3.30;;
20144;SDS011;10233;50.814;6.590;2023-02-18T01:34:20;4.33;;;3.20;;
20144;SDS011;10233;50.814;6.590;2023-02-18T01:35:21;4.78;;;3.25;;
20144;SDS011;10233;50.814;6.590;2023-02-18T01:36:23;5.07;;;3.28;;
20144;SDS011;10233;50.814;6.590;2023-02-18T01:37:23;5.87;;;3.27;;
20144;SDS011;10233;50.814;6.590;2023-02-18T01:38:24;6.70;;;3.78;;
20144;SDS011;10233;50.814;6.590;2023-02-18T01:39:25;5.07;;;3.40;;
20144;SDS011;10233;50.814;6.590;2023-02-18T01:40:26;5.47;;;3.30;;
20144;SDS011;10233;50.814;6.590;2023-02-18T01:41:28;5.00;;;3.35;;
20144;SDS011;10233;50.814;6.590;2023-02-18T01:42:30;5.32;;;3.35;;
20144;SDS011;10233;50.814;6.590;2023-02-18T01:43:30;5.22;;;3.15;;
20144;SDS011;10233;50.814;6.590;2023-02-18T01:44:32;4.15;;;3.05;;
20144;SDS011;10233;50.814;6.590;2023-02-18T01:46:34;5.47;;;3.50;;
20144;SDS011;10233;50.814;6.590;2023-02-18T01:47:34;4.57;;;3.05;;
20144;SDS011;10233;50.814;6.590;2023-02-18T01:48:37;4.87;;;3.60;;
20144;SDS011;10233;50.814;6.590;2023-02-18T01:49:40;5.03;;;3.33;;
20144;SDS011;10233;50.814;6.590;2023-02-18T01:50:43;5.72;;;3.53;;
20144;SDS011;10233;50.814;6.590;2023-02-18T01:51:57;5.03;;;3.47;;
20144;SDS011;10233;50.814;6.590;2023-02-18T01:53:03;4.50;;;2.80;;
20144;SDS011;10233;50.814;6.590;2023-02-18T01:55:08;4.65;;;3.03;;
20144;SDS011;10233;50.814;6.590;2023-02-18T01:56:09;4.47;;;2.87;;
20144;SDS011;10233;50.814;6.590;2023-02-18T01:57:19;4.93;;;2.72;;
20144;SDS011;10233;50.814;6.590;2023-02-18T01:58:23;3.53;;;2.47;;
20144;SDS011;10233;50.814;6.590;2023-02-18T01:59:29;3.90;;;2.50;;
20144;SDS011;10233;50.814;6.590;2023-02-18T02:00:33;3.65;;;2.35;;
20144;SDS011;10233;50.814;6.590;2023-02-18T02:01:35;9.13;;;5.30;;
20144;SDS011;10233;50.814;6.590;2023-02-18T02:02:39;16.27;;;8.20;;
20144;SDS011;10233;50.814;6.590;2023-02-18T02:03:43;9.38;;;5.13;;
20144;SDS011;10233;50.814;6.590;2023-02-18T02:04:44;4.30;;;2.80;;
20144;SDS011;10233;50.814;6.590;2023-02-18T02:05:45;5.40;;;3.40;;
20144;SDS011;10233;50.814;6.590;2023-02-18T02:06:49;5.30;;;3.58;;
20144;SDS011;10233;50.814;6.590;2023-02-18T02:07:50;4.90;;;3.37;;
20144;SDS011;10233;50.814;6.590;2023-02-18T02:08:54;3.92;;;3.45;;
20144;SDS011;10233;50.814;6.590;2023-02-18T02:09:57;5.97;;;3.88;;
20144;SDS011;10233;50.814;6.590;2023-02-18T02:14:49;2.05;;;1.60;;
20144;SDS011;10233;50.814;6.590;2023-02-18T02:16:19;1.55;;;1.23;;
20144;SDS011;10233;50.814;6.590;2023-02-18T02:19:16;2.22;;;1.23;;
20144;SDS011;10233;50.814;6.590;2023-02-18T02:26:08;1.30;;;1.08;;
20144;SDS011;10233;50.814;6.590;2023-02-18T02:36:40;1.58;;;1.00;;
20144;SDS011;10233;50.814;6.590;2023-02-18T02:39:13;1.52;;;0.95;;
20144;SDS011;10233;50.814;6.590;2023-02-18T02:40:26;1.98;;;1.10;;
20144;SDS011;10233;50.814;6.590;2023-02-18T02:41:50;1.20;;;0.80;;
20144;SDS011;10233;50.814;6.590;2023-02-18T02:43:11;1.63;;;1.13;;
20144;SDS011;10233;50.814;6.590;2023-02-18T02:45:36;1.00;;;0.80;;
20144;SDS011;10233;50.814;6.590;2023-02-18T02:46:50;2.10;;;1.10;;
20144;SDS011;10233;50.814;6.590;2023-02-18T02:48:00;1.67;;;1.00;;
20144;SDS011;10233;50.814;6.590;2023-02-18T02:52:49;0.77;;;0.73;;
20144;SDS011;10233;50.814;6.590;2023-02-18T02:53:55;1.17;;;0.70;;
20144;SDS011;10233;50.814;6.590;2023-02-18T02:55:09;1.52;;;0.77;;
20144;SDS011;10233;50.814;6.590;2023-02-18T02:56:17;0.98;;;0.68;;
20144;SDS011;10233;50.814;6.590;2023-02-18T02:58:37;1.08;;;0.90;;
20144;SDS011;10233;50.814;6.590;2023-02-18T02:59:39;2.40;;;0.80;;
20144;SDS011;10233;50.814;6.590;2023-02-18T03:00:56;2.90;;;0.80;;
20144;SDS011;10233;50.814;6.590;2023-02-18T03:03:58;0.82;;;0.60;;
20144;SDS011;10233;50.814;6.590;2023-02-18T03:11:08;0.80;;;0.50;;
20144;SDS011;10233;50.814;6.590;2023-02-18T03:14:16;0.50;;;0.40;;
20144;SDS011;10233;50.814;6.590;2023-02-18T03:17:28;0.85;;;0.50;;
20144;SDS011;10233;50.814;6.590;2023-02-18T03:18:40;0.43;;;0.40;;
20144;SDS011;10233;50.814;6.590;2023-02-18T03:19:48;0.80;;;0.50;;
20144;SDS011;10233;50.814;6.590;2023-02-18T03:21:13;0.47;;;0.40;;
20144;SDS011;10233;50.814;6.590;2023-02-18T03:22:26;0.95;;;0.30;;
20144;SDS011;10233;50.814;6.590;2023-02-18T03:23:51;0.70;;;0.40;;
20144;SDS011;10233;50.814;6.590;2023-02-18T03:24:56;0.40;;;0.40;;
20144;SDS011;10233;50.814;6.590;2023-02-18T03:25:58;0.40;;;0.30;;
20144;SDS011;10233;50.814;6.590;2023-02-18T03:27:06;0.88;;;0.30;;
20144;SDS011;10233;50.814;6.590;2023-02-18T03:28:18;0.82;;;0.45;;
20144;SDS011;10233;50.814;6.590;2023-02-18T03:29:20;0.82;;;0.50;;
20144;SDS011;10233;50.814;6.590;2023-02-18T03:30:25;0.50;;;0.30;;
20144;SDS011;10233;50.814;6.590;2023-02-18T03:31:31;0.52;;;0.40;;
20144;SDS011;10233;50.814;6.590;2023-02-18T03:32:36;0.75;;;0.30;;
20144;SDS011;10233;50.814;6.590;2023-02-18T03:33:41;0.45;;;0.30;;
20144;SDS011;10233;50.814;6.590;2023-02-18T03:34:48;0.90;;;0.40;;
20144;SDS011;10233;50.814;6.590;2023-02-18T03:35:52;1.05;;;0.40;;
20144;SDS011;10233;50.814;6.590;2023-02-18T03:36:54;0.50;;;0.30;;
20144;SDS011;10233;50.814;6.590;2023-02-18T03:38:41;1.38;;;0.70;;
20144;SDS011;10233;50.814;6.590;2023-02-18T03:39:25;1.65;;;0.28;;
20144;SDS011;10233;50.814;6.590;2023-02-18T03:40:29;0.65;;;0.35;;
20144;SDS011;10233;50.814;6.590;2023-02-18T03:41:30;0.60;;;0.35;;
20144;SDS011;10233;50.814;6.590;2023-02-18T03:42:32;0.70;;;0.40;;
20144;SDS011;10233;50.814;6.590;2023-02-18T03:43:32;0.53;;;0.33;;
20144;SDS011;10233;50.814;6.590;2023-02-18T03:44:33;1.58;;;0.43;;
20144;SDS011;10233;50.814;6.590;2023-02-18T03:45:34;0.77;;;0.50;;
20144;SDS011;10233;50.814;6.590;2023-02-18T03:46:34;1.20;;;0.30;;
20144;SDS011;10233;50.814;6.590;2023-02-18T03:47:37;1.50;;;0.40;;
20144;SDS011;10233;50.814;6.590;2023-02-18T03:48:37;1.02;;;0.40;;
20144;SDS011;10233;50.814;6.590;2023-02-18T03:49:38;0.37;;;0.20;;
20144;SDS011;10233;50.814;6.590;2023-02-18T03:50:38;0.80;;;0.30;;
20144;SDS011;10233;50.814;6.590;2023-02-18T03:51:39;3.30;;;0.40;;
20144;SDS011;10233;50.814;6.590;2023-02-18T03:52:41;0.43;;;0.30;;
20144;SDS011;10233;50.814;6.590;2023-02-18T03:53:41;0.70;;;0.20;;
20144;SDS011;10233;50.814;6.590;2023-02-18T03:54:42;0.53;;;0.30;;
20144;SDS011;10233;50.814;6.590;2023-02-18T03:55:42;0.63;;;0.37;;
20144;SDS011;10233;50.814;6.590;2023-02-18T03:56:43;0.50;;;0.20;;
20144;SDS011;10233;50.814;6.590;2023-02-18T03:57:43;0.37;;;0.27;;
20144;SDS011;10233;50.814;6.590;2023-02-18T03:58:44;1.00;;;0.30;;
20144;SDS011;10233;50.814;6.590;2023-02-18T03:59:44;0.63;;;0.30;;
20144;SDS011;10233;50.814;6.590;2023-02-18T04:00:45;0.50;;;0.35;;
20144;SDS011;10233;50.814;6.590;2023-02-18T04:01:45;1.20;;;0.30;;
20144;SDS011;10233;50.814;6.590;2023-02-18T04:02:45;0.32;;;0.20;;
20144;SDS011;10233;50.814;6.590;2023-02-18T04:03:46;0.30;;;0.20;;
20144;SDS011;10233;50.814;6.590;2023-02-18T04:04:46;0.30;;;0.10;;
20144;SDS011;10233;50.814;6.590;2023-02-18T04:05:47;0.20;;;0.10;;
20144;SDS011;10233;50.814;6.590;2023-02-18T04:06:48;0.40;;;0.20;;
20144;SDS011;10233;50.814;6.590;2023-02-18T04:07:48;0.13;;;0.10;;
20144;SDS011;10233;50.814;6.590;2023-02-18T04:08:49;0.20;;;0.20;;
20144;SDS011;10233;50.814;6.590;2023-02-18T04:09:50;0.28;;;0.10;;
20144;SDS011;10233;50.814;6.590;2023-02-18T04:10:50;0.40;;;0.17;;
20144;SDS011;10233;50.814;6.590;2023-02-18T04:11:51;0.97;;;0.33;;
20144;SDS011;10233;50.814;6.590;2023-02-18T04:12:51;0.70;;;0.30;;
20144;SDS011;10233;50.814;6.590;2023-02-18T04:13:52;0.22;;;0.10;;
20144;SDS011;10233;50.814;6.590;2023-02-18T04:14:53;0.10;;;0.10;;
20144;SDS011;10233;50.814;6.590;2023-02-18T04:15:53;0.20;;;0.17;;
20144;SDS011;10233;50.814;6.590;2023-02-18T04:16:53;0.57;;;0.20;;
20144;SDS011;10233;50.814;6.590;2023-02-18T04:17:54;0.57;;;0.20;;
20144;SDS011;10233;50.814;6.590;2023-02-18T04:18:54;0.57;;;0.20;;
20144;SDS011;10233;50.814;6.590;2023-02-18T04:19:55;1.10;;;0.30;;
20144;SDS011;10233;50.814;6.590;2023-02-18T04:20:55;0.50;;;0.28;;
20144;SDS011;10233;50.814;6.590;2023-02-18T04:21:56;1.07;;;0.20;;
20144;SDS011;10233;50.814;6.590;2023-02-18T04:22:56;2.22;;;0.40;;
20144;SDS011;10233;50.814;6.590;2023-02-18T04:23:57;0.40;;;0.20;;
20144;SDS011;10233;50.814;6.590;2023-02-18T04:24:57;0.80;;;0.22;;
20144;SDS011;10233;50.814;6.590;2023-02-18T04:25:59;2.10;;;0.30;;
20144;SDS011;10233;50.814;6.590;2023-02-18T04:27:00;0.90;;;0.20;;
20144;SDS011;10233;50.814;6.590;2023-02-18T04:28:01;0.30;;;0.20;;
20144;SDS011;10233;50.814;6.590;2023-02-18T04:29:01;1.00;;;0.30;;
20144;SDS011;10233;50.814;6.590;2023-02-18T04:30:02;1.00;;;0.50;;
20144;SDS011;10233;50.814;6.590;2023-02-18T04:31:03;0.30;;;0.30;;
20144;SDS011;10233;50.814;6.590;2023-02-18T04:32:05;0.77;;;0.30;;
20144;SDS011;10233;50.814;6.590;2023-02-18T04:33:05;0.80;;;0.43;;
20144;SDS011;10233;50.814;6.590;2023-02-18T04:34:06;0.80;;;0.30;;
20144;SDS011;10233;50.814;6.590;2023-02-18T04:35:07;1.52;;;0.73;;
20144;SDS011;10233;50.814;6.590;2023-02-18T04:36:07;0.67;;;0.20;;
20144;SDS011;10233;50.814;6.590;2023-02-18T04:37:08;0.43;;;0.30;;
20144;SDS011;10233;50.814;6.590;2023-02-18T04:38:09;0.63;;;0.37;;
20144;SDS011;10233;50.814;6.590;2023-02-18T04:39:10;0.65;;;0.25;;
20144;SDS011;10233;50.814;6.590;2023-02-18T04:40:11;0.20;;;0.20;;
20144;SDS011;10233;50.814;6.590;2023-02-18T04:41:11;0.40;;;0.30;;
20144;SDS011;10233;50.814;6.590;2023-02-18T04:42:12;0.30;;;0.30;;
20144;SDS011;10233;50.814;6.590;2023-02-18T04:43:12;0.30;;;0.20;;
20144;SDS011;10233;50.814;6.590;2023-02-18T04:44:13;0.40;;;0.30;;
20144;SDS011;10233;50.814;6.590;2023-02-18T04:45:13;1.10;;;0.30;;
20144;SDS011;10233;50.814;6.590;2023-02-18T04:46:14;0.47;;;0.30;;
20144;SDS011;10233;50.814;6.590;2023-02-18T04:47:14;0.80;;;0.40;;
20144;SDS011;10233;50.814;6.590;2023-02-18T04:48:15;1.17;;;0.50;;
20144;SDS011;10233;50.814;6.590;2023-02-18T04:49:15;1.30;;;0.60;;
20144;SDS011;10233;50.814;6.590;2023-02-18T04:50:15;1.45;;;0.43;;
20144;SDS011;10233;50.814;6.590;2023-02-18T04:51:16;1.00;;;0.50;;
20144;SDS011;10233;50.814;6.590;2023-02-18T04:52:17;1.20;;;0.40;;
20144;SDS011;10233;50.814;6.590;2023-02-18T04:53:17;0.75;;;0.35;;
20144;SDS011;10233;50.814;6.590;2023-02-18T04:54:18;1.20;;;0.40;;
20144;SDS011;10233;50.814;6.590;2023-02-18T04:55:18;0.50;;;0.20;;
20144;SDS011;10233;50.814;6.590;2023-02-18T04:56:19;0.68;;;0.30;;
20144;SDS011;10233;50.814;6.590;2023-02-18T04:57:19;0.50;;;0.40;;
20144;SDS011;10233;50.814;6.590;2023-02-18T04:58:20;0.27;;;0.20;;
20144;SDS011;10233;50.814;6.590;2023-02-18T04:59:21;1.17;;;0.50;;
20144;SDS011;10233;50.814;6.590;2023-02-18T05:00:21;1.03;;;0.40;;
20144;SDS011;10233;50.814;6.590;2023-02-18T05:01:22;0.90;;;0.32;;
20144;SDS011;10233;50.814;6.590;2023-02-18T05:02:22;1.40;;;0.40;;
20144;SDS011;10233;50.814;6.590;2023-02-18T05:03:23;0.52;;;0.20;;
20144;SDS011;10233;50.814;6.590;2023-02-18T05:04:23;0.60;;;0.40;;
20144;SDS011;10233;50.814;6.590;2023-02-18T05:05:25;0.60;;;0.47;;
20144;SDS011;10233;50.814;6.590;2023-02-18T05:06:25;0.73;;;0.20;;
20144;SDS011;10233;50.814;6.590;2023-02-18T05:07:25;0.40;;;0.30;;
20144;SDS011;10233;50.814;6.590;2023-02-18T05:08:26;1.40;;;0.40;;
20144;SDS011;10233;50.814;6.590;2023-02-18T05:09:26;0.80;;;0.30;;
20144;SDS011;10233;50.814;6.590;2023-02-18T05:10:27;0.70;;;0.40;;
20144;SDS011;10233;50.814;6.590;2023-02-18T05:11:27;0.33;;;0.20;;
20144;SDS011;10233;50.814;6.590;2023-02-18T05:12:28;0.30;;;0.20;;
20144;SDS011;10233;50.814;6.590;2023-02-18T05:13:28;0.50;;;0.22;;
20144;SDS011;10233;50.814;6.590;2023-02-18T05:14:28;0.73;;;0.30;;
20144;SDS011;10233;50.814;6.590;2023-02-18T05:15:29;0.70;;;0.27;;
20144;SDS011;10233;50.814;6.590;2023-02-18T05:16:29;0.30;;;0.30;;
20144;SDS011;10233;50.814;6.590;2023-02-18T05:17:30;0.30;;;0.20;;
20144;SDS011;10233;50.814;6.590;2023-02-18T05:18:31;0.73;;;0.20;;
20144;SDS011;10233;50.814;6.590;2023-02-18T05:19:31;0.52;;;0.20;;
20144;SDS011;10233;50.814;6.590;2023-02-18T05:20:32;0.50;;;0.30;;
20144;SDS011;10233;50.814;6.590;2023-02-18T05:21:33;0.70;;;0.30;;
20144;SDS011;10233;50.814;6.590;2023-02-18T05:22:36;0.30;;;0.30;;
20144;SDS011;10233;50.814;6.590;2023-02-18T05:23:37;0.30;;;0.30;;
20144;SDS011;10233;50.814;6.590;2023-02-18T05:24:37;0.20;;;0.20;;
20144;SDS011;10233;50.814;6.590;2023-02-18T05:25:38;0.40;;;0.20;;
20144;SDS011;10233;50.814;6.590;2023-02-18T05:26:38;0.40;;;0.20;;
20144;SDS011;10233;50.814;6.590;2023-02-18T05:27:39;0.22;;;0.20;;
20144;SDS011;10233;50.814;6.590;2023-02-18T05:28:39;0.20;;;0.20;;
20144;SDS011;10233;50.814;6.590;2023-02-18T05:29:39;0.50;;;0.20;;
20144;SDS011;10233;50.814;6.590;2023-02-18T05:30:40;0.37;;;0.30;;
20144;SDS011;10233;50.814;6.590;2023-02-18T05:31:40;0.30;;;0.30;;
20144;SDS011;10233;50.814;6.590;2023-02-18T05:32:42;0.52;;;0.30;;
20144;SDS011;10233;50.814;6.590;2023-02-18T05:33:42;0.30;;;0.30;;
20144;SDS011;10233;50.814;6.590;2023-02-18T05:34:43;0.63;;;0.25;;
20144;SDS011;10233;50.814;6.590;2023-02-18T05:35:43;0.30;;;0.30;;
20144;SDS011;10233;50.814;6.590;2023-02-18T05:36:44;0.20;;;0.20;;
20144;SDS011;10233;50.814;6.590;2023-02-18T05:37:44;0.17;;;0.17;;
20144;SDS011;10233;50.814;6.590;2023-02-18T05:38:45;0.30;;;0.30;;
20144;SDS011;10233;50.814;6.590;2023-02-18T05:39:45;0.55;;;0.40;;
20144;SDS011;10233;50.814;6.590;2023-02-18T05:40:46;0.70;;;0.30;;
20144;SDS011;10233;50.814;6.590;2023-02-18T05:41:46;0.40;;;0.30;;
20144;SDS011;10233;50.814;6.590;2023-02-18T05:42:47;0.50;;;0.20;;
20144;SDS011;10233;50.814;6.590;2023-02-18T05:43:47;0.20;;;0.20;;
20144;SDS011;10233;50.814;6.590;2023-02-18T05:45:07;0.40;;;0.40;;
20144;SDS011;10233;50.814;6.590;2023-02-18T05:46:08;0.57;;;0.40;;
20144;SDS011;10233;50.814;6.590;2023-02-18T05:47:09;0.40;;;0.25;;
20144;SDS011;10233;50.814;6.590;2023-02-18T05:48:11;0.70;;;0.30;;
20144;SDS011;10233;50.814;6.590;2023-02-18T05:49:12;0.30;;;0.27;;
20144;SDS011;10233;50.814;6.590;2023-02-18T05:50:12;0.50;;;0.40;;
20144;SDS011;10233;50.814;6.590;2023-02-18T05:51:13;0.60;;;0.30;;
20144;SDS011;10233;50.814;6.590;2023-02-18T05:52:14;1.05;;;0.30;;
20144;SDS011;10233;50.814;6.590;2023-02-18T05:53:14;0.70;;;0.60;;
20144;SDS011;10233;50.814;6.590;2023-02-18T05:54:15;0.57;;;0.25;;
20144;SDS011;10233;50.814;6.590;2023-02-18T05:55:15;0.60;;;0.53;;
20144;SDS011;10233;50.814;6.590;2023-02-18T05:56:16;0.38;;;0.30;;
20144;SDS011;10233;50.814;6.590;2023-02-18T05:57:19;1.00;;;0.30;;
20144;SDS011;10233;50.814;6.590;2023-02-18T05:58:19;0.80;;;0.40;;
20144;SDS011;10233;50.814;6.590;2023-02-18T05:59:20;0.68;;;0.40;;
20144;SDS011;10233;50.814;6.590;2023-02-18T06:00:21;0.30;;;0.30;;
20144;SDS011;10233;50.814;6.590;2023-02-18T06:01:21;0.30;;;0.30;;
20144;SDS011;10233;50.814;6.590;2023-02-18T06:02:22;0.70;;;0.30;;
20144;SDS011;10233;50.814;6.590;2023-02-18T06:03:22;0.43;;;0.30;;
20144;SDS011;10233;50.814;6.590;2023-02-18T06:04:23;1.30;;;0.30;;
20144;SDS011;10233;50.814;6.590;2023-02-18T06:05:23;0.20;;;0.17;;
20144;SDS011;10233;50.814;6.590;2023-02-18T06:06:24;0.20;;;0.20;;
20144;SDS011;10233;50.814;6.590;2023-02-18T06:07:24;0.20;;;0.20;;
20144;SDS011;10233;50.814;6.590;2023-02-18T06:08:25;1.20;;;0.20;;
20144;SDS011;10233;50.814;6.590;2023-02-18T06:09:25;0.60;;;0.30;;
20144;SDS011;10233;50.814;6.590;2023-02-18T06:10:26;0.10;;;0.10;;
20144;SDS011;10233;50.814;6.590;2023-02-18T06:11:26;0.43;;;0.23;;
20144;SDS011;10233;50.814;6.590;2023-02-18T06:12:26;0.40;;;0.22;;
20144;SDS011;10233;50.814;6.590;2023-02-18T06:13:27;1.15;;;0.20;;
20144;SDS011;10233;50.814;6.590;2023-02-18T06:14:28;0.70;;;0.10;;
20144;SDS011;10233;50.814;6.590;2023-02-18T06:15:28;1.37;;;0.20;;
20144;SDS011;10233;50.814;6.590;2023-02-18T06:16:29;0.10;;;0.10;;
20144;SDS011;10233;50.814;6.590;2023-02-18T06:17:30;0.15;;;0.13;;
20144;SDS011;10233;50.814;6.590;2023-02-18T06:18:30;1.33;;;0.20;;
20144;SDS011;10233;50.814;6.590;2023-02-18T06:19:31;0.50;;;0.40;;
20144;SDS011;10233;50.814;6.590;2023-02-18T06:20:31;1.50;;;0.10;;
20144;SDS011;10233;50.814;6.590;2023-02-18T06:21:32;0.10;;;0.00;;
20144;SDS011;10233;50.814;6.590;2023-02-18T06:22:33;0.22;;;0.10;;
20144;SDS011;10233;50.814;6.590;2023-02-18T06:23:33;0.20;;;0.10;;
20144;SDS011;10233;50.814;6.590;2023-02-18T06:24:34;0.10;;;0.10;;
20144;SDS011;10233;50.814;6.590;2023-02-18T06:25:34;1.13;;;0.20;;
20144;SDS011;10233;50.814;6.590;2023-02-18T06:26:35;0.10;;;0.10;;
20144;SDS011;10233;50.814;6.590;2023-02-18T06:27:35;0.80;;;0.10;;
20144;SDS011;10233;50.814;6.590;2023-02-18T06:28:35;0.20;;;0.10;;
20144;SDS011;10233;50.814;6.590;2023-02-18T06:29:36;0.30;;;0.10;;
20144;SDS011;10233;50.814;6.590;2023-02-18T06:30:37;0.20;;;0.13;;
20144;SDS011;10233;50.814;6.590;2023-02-18T06:31:37;0.60;;;0.20;;
20144;SDS011;10233;50.814;6.590;2023-02-18T06:32:38;0.50;;;0.10;;
20144;SDS011;10233;50.814;6.590;2023-02-18T06:33:38;0.33;;;0.17;;
20144;SDS011;10233;50.814;6.590;2023-02-18T06:34:39;0.10;;;0.10;;
20144;SDS011;10233;50.814;6.590;2023-02-18T06:35:39;0.30;;;0.20;;
20144;SDS011;10233;50.814;6.590;2023-02-18T06:36:40;0.10;;;0.10;;
20144;SDS011;10233;50.814;6.590;2023-02-18T06:37:40;0.50;;;0.40;;
20144;SDS011;10233;50.814;6.590;2023-02-18T06:38:41;0.30;;;0.30;;
20144;SDS011;10233;50.814;6.590;2023-02-18T06:39:43;0.60;;;0.20;;
20144;SDS011;10233;50.814;6.590;2023-02-18T06:40:45;0.45;;;0.20;;
20144;SDS011;10233;50.814;6.590;2023-02-18T06:41:46;0.52;;;0.25;;
20144;SDS011;10233;50.814;6.590;2023-02-18T06:42:47;0.82;;;0.20;;
20144;SDS011;10233;50.814;6.590;2023-02-18T06:43:47;0.20;;;0.10;;
20144;SDS011;10233;50.814;6.590;2023-02-18T06:44:47;0.50;;;0.20;;
20144;SDS011;10233;50.814;6.590;2023-02-18T06:45:48;0.90;;;0.30;;
20144;SDS011;10233;50.814;6.590;2023-02-18T06:46:49;0.55;;;0.10;;
20144;SDS011;10233;50.814;6.590;2023-02-18T06:47:49;0.30;;;0.20;;
20144;SDS011;10233;50.814;6.590;2023-02-18T06:48:49;0.30;;;0.20;;
20144;SDS011;10233;50.814;6.590;2023-02-18T06:49:50;0.50;;;0.30;;
20144;SDS011;10233;50.814;6.590;2023-02-18T06:50:50;0.20;;;0.20;;
20144;SDS011;10233;50.814;6.590;2023-02-18T06:51:51;0.30;;;0.20;;
20144;SDS011;10233;50.814;6.590;2023-02-18T06:52:51;0.10;;;0.10;;
20144;SDS011;10233;50.814;6.590;2023-02-18T06:53:52;1.80;;;0.43;;
20144;SDS011;10233;50.814;6.590;2023-02-18T06:54:52;0.50;;;0.30;;
20144;SDS011;10233;50.814;6.590;2023-02-18T06:55:53;1.20;;;0.40;;
20144;SDS011;10233;50.814;6.590;2023-02-18T06:56:53;0.20;;;0.20;;